sensor_id;sensor_type;location;lat;lon;timestamp;temperature;humidity
29539;DHT22;16482;51.046;4.498;2022-11-27T00:00:39;23.50;35.30
29539;DHT22;16482;51.046;4.498;2022-11-27T00:03:05;23.50;35.30
29539;DHT22;16482;51.046;4.498;2022-11-27T00:05:31;23.50;35.40
29539;DHT22;16482;51.046;4.498;2022-11-27T00:10:46;23.50;35.40
29539;DHT22;16482;51.046;4.498;2022-11-27T00:16:19;23.40;35.40
29539;DHT22;16482;51.046;4.498;2022-11-27T00:18:45;23.40;35.50
29539;DHT22;16482;51.046;4.498;2022-11-27T00:21:31;23.40;35.50
29539;DHT22;16482;51.046;4.498;2022-11-27T00:23:59;23.40;35.40
29539;DHT22;16482;51.046;4.498;2022-11-27T00:26:25;23.40;35.40
29539;DHT22;16482;51.046;4.498;2022-11-27T00:28:52;23.40;35.40
29539;DHT22;16482;51.046;4.498;2022-11-27T00:31:29;23.40;35.50
29539;DHT22;16482;51.046;4.498;2022-11-27T00:34:11;23.40;35.50
29539;DHT22;16482;51.046;4.498;2022-11-27T00:36:37;23.40;35.50
29539;DHT22;16482;51.046;4.498;2022-11-27T00:39:03;23.40;35.60
29539;DHT22;16482;51.046;4.498;2022-11-27T00:41:30;23.40;35.60
29539;DHT22;16482;51.046;4.498;2022-11-27T00:43:56;23.40;35.60
29539;DHT22;16482;51.046;4.498;2022-11-27T00:49:44;23.30;35.60
29539;DHT22;16482;51.046;4.498;2022-11-27T00:52:30;23.30;35.60
29539;DHT22;16482;51.046;4.498;2022-11-27T00:54:55;23.30;35.60
29539;DHT22;16482;51.046;4.498;2022-11-27T00:57:21;23.30;35.60
29539;DHT22;16482;51.046;4.498;2022-11-27T01:00:06;23.20;35.60
29539;DHT22;16482;51.046;4.498;2022-11-27T01:02:32;23.30;35.60
29539;DHT22;16482;51.046;4.498;2022-11-27T01:04:58;23.30;35.60
29539;DHT22;16482;51.046;4.498;2022-11-27T01:07:25;23.30;35.60
29539;DHT22;16482;51.046;4.498;2022-11-27T01:09:51;23.30;35.60
29539;DHT22;16482;51.046;4.498;2022-11-27T01:12:18;23.30;35.60
29539;DHT22;16482;51.046;4.498;2022-11-27T01:14:44;23.30;35.60
29539;DHT22;16482;51.046;4.498;2022-11-27T01:17:09;23.30;35.60
29539;DHT22;16482;51.046;4.498;2022-11-27T01:19:36;23.30;35.60
29539;DHT22;16482;51.046;4.498;2022-11-27T01:22:02;23.20;35.50
29539;DHT22;16482;51.046;4.498;2022-11-27T01:27:32;23.20;35.50
29539;DHT22;16482;51.046;4.498;2022-11-27T01:29:58;23.20;35.50
29539;DHT22;16482;51.046;4.498;2022-11-27T01:35:57;23.20;35.40
29539;DHT22;16482;51.046;4.498;2022-11-27T01:38:43;23.20;35.50
29539;DHT22;16482;51.046;4.498;2022-11-27T01:41:23;23.20;35.50
29539;DHT22;16482;51.046;4.498;2022-11-27T01:50:07;23.10;35.40
29539;DHT22;16482;51.046;4.498;2022-11-27T01:52:37;23.10;35.50
29539;DHT22;16482;51.046;4.498;2022-11-27T01:55:11;23.10;35.40
29539;DHT22;16482;51.046;4.498;2022-11-27T01:57:47;23.10;35.40
29539;DHT22;16482;51.046;4.498;2022-11-27T02:06:27;23.10;35.40
29539;DHT22;16482;51.046;4.498;2022-11-27T02:12:18;23.10;35.30
29539;DHT22;16482;51.046;4.498;2022-11-27T02:15:20;23.10;35.30
29539;DHT22;16482;51.046;4.498;2022-11-27T02:19:11;23.10;35.30
29539;DHT22;16482;51.046;4.498;2022-11-27T02:22:04;23.00;35.30
29539;DHT22;16482;51.046;4.498;2022-11-27T02:30:20;23.10;35.20
29539;DHT22;16482;51.046;4.498;2022-11-27T02:47:16;23.10;35.00
29539;DHT22;16482;51.046;4.498;2022-11-27T02:49:43;23.00;35.00
29539;DHT22;16482;51.046;4.498;2022-11-27T02:52:12;23.00;35.00
29539;DHT22;16482;51.046;4.498;2022-11-27T02:54:41;23.00;35.00
29539;DHT22;16482;51.046;4.498;2022-11-27T02:57:08;23.00;35.00
29539;DHT22;16482;51.046;4.498;2022-11-27T02:59:35;23.00;34.90
29539;DHT22;16482;51.046;4.498;2022-11-27T03:02:05;23.00;34.90
29539;DHT22;16482;51.046;4.498;2022-11-27T03:04:50;23.10;34.80
29539;DHT22;16482;51.046;4.498;2022-11-27T03:07:31;23.10;34.80
29539;DHT22;16482;51.046;4.498;2022-11-27T03:10:02;23.00;34.80
29539;DHT22;16482;51.046;4.498;2022-11-27T03:12:29;23.00;34.80
29539;DHT22;16482;51.046;4.498;2022-11-27T03:18:20;23.00;34.60
29539;DHT22;16482;51.046;4.498;2022-11-27T03:20:54;23.00;34.60
29539;DHT22;16482;51.046;4.498;2022-11-27T03:23:34;23.00;34.60
29539;DHT22;16482;51.046;4.498;2022-11-27T03:26:05;23.00;34.60
29539;DHT22;16482;51.046;4.498;2022-11-27T03:28:35;23.00;34.60
29539;DHT22;16482;51.046;4.498;2022-11-27T03:31:03;23.00;34.50
29539;DHT22;16482;51.046;4.498;2022-11-27T03:33:30;23.00;34.60
29539;DHT22;16482;51.046;4.498;2022-11-27T03:36:15;23.00;34.50
29539;DHT22;16482;51.046;4.498;2022-11-27T03:38:43;23.00;34.50
29539;DHT22;16482;51.046;4.498;2022-11-27T03:45:00;23.00;34.40
29539;DHT22;16482;51.046;4.498;2022-11-27T03:59:39;23.00;34.30
29539;DHT22;16482;51.046;4.498;2022-11-27T04:02:13;23.00;34.30
29539;DHT22;16482;51.046;4.498;2022-11-27T04:04:39;23.00;34.30
29539;DHT22;16482;51.046;4.498;2022-11-27T04:07:05;23.00;34.30
29539;DHT22;16482;51.046;4.498;2022-11-27T04:09:50;23.00;34.30
29539;DHT22;16482;51.046;4.498;2022-11-27T04:12:15;23.00;34.30
29539;DHT22;16482;51.046;4.498;2022-11-27T04:14:41;22.90;34.30
29539;DHT22;16482;51.046;4.498;2022-11-27T04:20:29;22.90;34.30
29539;DHT22;16482;51.046;4.498;2022-11-27T04:23:14;22.90;34.30
29539;DHT22;16482;51.046;4.498;2022-11-27T04:25:39;22.90;34.20
29539;DHT22;16482;51.046;4.498;2022-11-27T04:28:05;22.90;34.30
29539;DHT22;16482;51.046;4.498;2022-11-27T04:30:31;22.90;34.30
29539;DHT22;16482;51.046;4.498;2022-11-27T04:36:10;22.90;34.30
29539;DHT22;16482;51.046;4.498;2022-11-27T04:38:55;22.90;34.30
29539;DHT22;16482;51.046;4.498;2022-11-27T04:45:01;22.90;34.30
29539;DHT22;16482;51.046;4.498;2022-11-27T04:47:27;22.90;34.40
29539;DHT22;16482;51.046;4.498;2022-11-27T04:49:53;22.90;34.40
29539;DHT22;16482;51.046;4.498;2022-11-27T04:52:40;22.90;34.40
29539;DHT22;16482;51.046;4.498;2022-11-27T04:55:15;22.90;34.40
29539;DHT22;16482;51.046;4.498;2022-11-27T04:57:43;22.90;34.40
29539;DHT22;16482;51.046;4.498;2022-11-27T05:00:17;22.90;34.40
29539;DHT22;16482;51.046;4.498;2022-11-27T05:02:45;22.90;34.40
29539;DHT22;16482;51.046;4.498;2022-11-27T05:05:11;22.90;34.50
29539;DHT22;16482;51.046;4.498;2022-11-27T05:07:37;22.90;34.50
29539;DHT22;16482;51.046;4.498;2022-11-27T05:10:04;22.90;34.50
29539;DHT22;16482;51.046;4.498;2022-11-27T05:12:30;22.90;34.50
29539;DHT22;16482;51.046;4.498;2022-11-27T05:14:56;22.90;34.60
29539;DHT22;16482;51.046;4.498;2022-11-27T05:17:22;22.90;34.60
29539;DHT22;16482;51.046;4.498;2022-11-27T05:22:35;22.90;34.60
29539;DHT22;16482;51.046;4.498;2022-11-27T05:28:44;22.90;34.60
29539;DHT22;16482;51.046;4.498;2022-11-27T05:31:10;22.90;34.70
29539;DHT22;16482;51.046;4.498;2022-11-27T05:43:28;22.80;34.70
29539;DHT22;16482;51.046;4.498;2022-11-27T05:45:54;22.80;34.90
29539;DHT22;16482;51.046;4.498;2022-11-27T05:48:21;22.80;34.90
29539;DHT22;16482;51.046;4.498;2022-11-27T05:50:47;22.80;34.90
29539;DHT22;16482;51.046;4.498;2022-11-27T05:53:13;22.80;34.90
29539;DHT22;16482;51.046;4.498;2022-11-27T05:56:07;22.80;34.90
29539;DHT22;16482;51.046;4.498;2022-11-27T05:58:37;22.80;34.90
29539;DHT22;16482;51.046;4.498;2022-11-27T06:04:25;22.80;34.90
29539;DHT22;16482;51.046;4.498;2022-11-27T06:06:57;22.80;35.00
29539;DHT22;16482;51.046;4.498;2022-11-27T06:09:27;22.80;35.00
29539;DHT22;16482;51.046;4.498;2022-11-27T06:15:17;22.80;35.20
29539;DHT22;16482;51.046;4.498;2022-11-27T06:17:52;22.80;35.40
29539;DHT22;16482;51.046;4.498;2022-11-27T06:20:18;22.90;35.50
29539;DHT22;16482;51.046;4.498;2022-11-27T06:22:46;22.90;35.50
29539;DHT22;16482;51.046;4.498;2022-11-27T06:25:12;22.90;35.50
29539;DHT22;16482;51.046;4.498;2022-11-27T06:27:37;23.00;35.50
29539;DHT22;16482;51.046;4.498;2022-11-27T06:30:04;23.00;35.40
29539;DHT22;16482;51.046;4.498;2022-11-27T06:32:30;23.10;35.50
29539;DHT22;16482;51.046;4.498;2022-11-27T06:34:56;23.10;35.40
29539;DHT22;16482;51.046;4.498;2022-11-27T06:37:23;23.10;35.30
29539;DHT22;16482;51.046;4.498;2022-11-27T06:39:49;23.20;35.30
29539;DHT22;16482;51.046;4.498;2022-11-27T06:42:16;23.20;35.20
29539;DHT22;16482;51.046;4.498;2022-11-27T06:44:42;23.30;35.20
29539;DHT22;16482;51.046;4.498;2022-11-27T06:47:08;23.30;35.10
29539;DHT22;16482;51.046;4.498;2022-11-27T06:49:34;23.40;35.10
29539;DHT22;16482;51.046;4.498;2022-11-27T06:52:02;23.50;35.10
29539;DHT22;16482;51.046;4.498;2022-11-27T06:54:28;23.50;35.10
29539;DHT22;16482;51.046;4.498;2022-11-27T06:56:57;23.50;35.00
29539;DHT22;16482;51.046;4.498;2022-11-27T06:59:30;23.60;35.00
29539;DHT22;16482;51.046;4.498;2022-11-27T07:01:59;23.60;34.90
29539;DHT22;16482;51.046;4.498;2022-11-27T07:04:25;23.60;34.90
29539;DHT22;16482;51.046;4.498;2022-11-27T07:06:58;23.60;34.90
29539;DHT22;16482;51.046;4.498;2022-11-27T07:09:26;23.70;35.00
29539;DHT22;16482;51.046;4.498;2022-11-27T07:11:57;23.70;35.00
29539;DHT22;16482;51.046;4.498;2022-11-27T07:14:30;23.60;34.90
29539;DHT22;16482;51.046;4.498;2022-11-27T07:17:00;23.70;34.90
29539;DHT22;16482;51.046;4.498;2022-11-27T07:19:28;23.70;34.90
29539;DHT22;16482;51.046;4.498;2022-11-27T07:21:57;23.70;34.90
29539;DHT22;16482;51.046;4.498;2022-11-27T07:24:27;23.70;34.80
29539;DHT22;16482;51.046;4.498;2022-11-27T07:26:55;23.70;34.80
29539;DHT22;16482;51.046;4.498;2022-11-27T07:29:42;23.80;34.80
29539;DHT22;16482;51.046;4.498;2022-11-27T07:32:08;23.80;34.80
29539;DHT22;16482;51.046;4.498;2022-11-27T07:34:34;23.80;34.80
29539;DHT22;16482;51.046;4.498;2022-11-27T07:37:00;23.80;34.80
29539;DHT22;16482;51.046;4.498;2022-11-27T07:39:45;23.80;34.80
29539;DHT22;16482;51.046;4.498;2022-11-27T07:45:19;23.80;34.80
29539;DHT22;16482;51.046;4.498;2022-11-27T07:50:34;23.80;34.90
29539;DHT22;16482;51.046;4.498;2022-11-27T07:53:00;23.80;34.90
29539;DHT22;16482;51.046;4.498;2022-11-27T07:55:46;23.80;34.80
29539;DHT22;16482;51.046;4.498;2022-11-27T07:58:12;23.80;34.80
29539;DHT22;16482;51.046;4.498;2022-11-27T08:00:56;23.80;34.90
29539;DHT22;16482;51.046;4.498;2022-11-27T08:06:44;23.80;34.80
29539;DHT22;16482;51.046;4.498;2022-11-27T08:09:11;23.80;34.90
29539;DHT22;16482;51.046;4.498;2022-11-27T08:11:38;23.80;34.90
29539;DHT22;16482;51.046;4.498;2022-11-27T08:14:23;23.80;34.90
29539;DHT22;16482;51.046;4.498;2022-11-27T08:16:57;23.80;34.90
29539;DHT22;16482;51.046;4.498;2022-11-27T08:22:27;23.80;34.90
29539;DHT22;16482;51.046;4.498;2022-11-27T08:24:54;23.80;34.90
29539;DHT22;16482;51.046;4.498;2022-11-27T08:27:41;23.80;34.90
29539;DHT22;16482;51.046;4.498;2022-11-27T08:30:22;23.80;35.00
29539;DHT22;16482;51.046;4.498;2022-11-27T08:33:02;23.80;35.00
29539;DHT22;16482;51.046;4.498;2022-11-27T08:35:27;23.80;35.00
29539;DHT22;16482;51.046;4.498;2022-11-27T08:37:55;23.80;35.00
29539;DHT22;16482;51.046;4.498;2022-11-27T08:40:21;23.80;35.00
29539;DHT22;16482;51.046;4.498;2022-11-27T08:42:47;23.80;35.00
29539;DHT22;16482;51.046;4.498;2022-11-27T08:45:17;23.80;35.00
29539;DHT22;16482;51.046;4.498;2022-11-27T08:47:47;23.80;35.00
29539;DHT22;16482;51.046;4.498;2022-11-27T08:50:14;23.80;35.00
29539;DHT22;16482;51.046;4.498;2022-11-27T08:56:09;23.80;35.00
29539;DHT22;16482;51.046;4.498;2022-11-27T08:58:38;23.80;35.10
29539;DHT22;16482;51.046;4.498;2022-11-27T09:01:10;23.80;35.10
29539;DHT22;16482;51.046;4.498;2022-11-27T09:03:39;23.80;35.10
29539;DHT22;16482;51.046;4.498;2022-11-27T09:06:07;23.80;35.10
29539;DHT22;16482;51.046;4.498;2022-11-27T09:08:54;23.80;35.10
29539;DHT22;16482;51.046;4.498;2022-11-27T09:11:20;23.80;35.10
29539;DHT22;16482;51.046;4.498;2022-11-27T09:13:46;23.80;35.10
29539;DHT22;16482;51.046;4.498;2022-11-27T09:16:14;23.80;35.10
29539;DHT22;16482;51.046;4.498;2022-11-27T09:21:49;23.80;35.10
29539;DHT22;16482;51.046;4.498;2022-11-27T09:24:18;23.80;35.10
29539;DHT22;16482;51.046;4.498;2022-11-27T09:27:03;23.80;35.20
29539;DHT22;16482;51.046;4.498;2022-11-27T09:29:28;23.80;35.10
29539;DHT22;16482;51.046;4.498;2022-11-27T09:31:54;23.80;35.20
29539;DHT22;16482;51.046;4.498;2022-11-27T09:34:27;23.80;35.20
29539;DHT22;16482;51.046;4.498;2022-11-27T09:36:55;23.80;35.20
29539;DHT22;16482;51.046;4.498;2022-11-27T09:39:28;23.80;35.10
29539;DHT22;16482;51.046;4.498;2022-11-27T09:41:59;23.80;35.20
29539;DHT22;16482;51.046;4.498;2022-11-27T09:44:43;23.80;35.20
29539;DHT22;16482;51.046;4.498;2022-11-27T09:55:45;23.90;35.30
29539;DHT22;16482;51.046;4.498;2022-11-27T10:00:51;23.80;35.30
29539;DHT22;16482;51.046;4.498;2022-11-27T10:03:20;23.80;35.20
29539;DHT22;16482;51.046;4.498;2022-11-27T10:17:41;23.80;35.30
29539;DHT22;16482;51.046;4.498;2022-11-27T10:23:27;23.80;35.40
29539;DHT22;16482;51.046;4.498;2022-11-27T10:26:16;23.80;35.40
29539;DHT22;16482;51.046;4.498;2022-11-27T10:29:01;23.80;35.50
29539;DHT22;16482;51.046;4.498;2022-11-27T10:31:42;23.80;35.50
29539;DHT22;16482;51.046;4.498;2022-11-27T10:43:03;23.90;35.70
29539;DHT22;16482;51.046;4.498;2022-11-27T10:45:41;23.90;35.70
29539;DHT22;16482;51.046;4.498;2022-11-27T10:48:10;23.90;35.70
29539;DHT22;16482;51.046;4.498;2022-11-27T10:50:37;23.80;35.70
29539;DHT22;16482;51.046;4.498;2022-11-27T10:53:36;23.90;35.80
29539;DHT22;16482;51.046;4.498;2022-11-27T10:56:33;23.90;35.70
29539;DHT22;16482;51.046;4.498;2022-11-27T10:59:31;24.00;35.80
29539;DHT22;16482;51.046;4.498;2022-11-27T11:01:58;23.90;35.70
29539;DHT22;16482;51.046;4.498;2022-11-27T11:04:29;24.00;35.90
29539;DHT22;16482;51.046;4.498;2022-11-27T11:06:56;24.00;35.90
29539;DHT22;16482;51.046;4.498;2022-11-27T11:12:18;24.00;36.00
29539;DHT22;16482;51.046;4.498;2022-11-27T11:17:51;24.10;36.00
29539;DHT22;16482;51.046;4.498;2022-11-27T11:20:22;24.10;36.10
29539;DHT22;16482;51.046;4.498;2022-11-27T11:22:49;24.10;36.10
29539;DHT22;16482;51.046;4.498;2022-11-27T11:28:19;24.10;36.00
29539;DHT22;16482;51.046;4.498;2022-11-27T11:34:29;24.10;36.10
29539;DHT22;16482;51.046;4.498;2022-11-27T11:37:06;24.10;36.10
29539;DHT22;16482;51.046;4.498;2022-11-27T11:39:38;24.10;36.10
29539;DHT22;16482;51.046;4.498;2022-11-27T11:42:25;24.10;36.10
29539;DHT22;16482;51.046;4.498;2022-11-27T11:47:52;24.10;36.10
29539;DHT22;16482;51.046;4.498;2022-11-27T11:50:47;24.10;36.10
29539;DHT22;16482;51.046;4.498;2022-11-27T11:53:40;24.10;36.10
29539;DHT22;16482;51.046;4.498;2022-11-27T11:56:32;24.10;36.10
29539;DHT22;16482;51.046;4.498;2022-11-27T12:02:24;24.10;36.10
29539;DHT22;16482;51.046;4.498;2022-11-27T12:14:55;24.10;36.20
29539;DHT22;16482;51.046;4.498;2022-11-27T12:39:24;24.10;36.00
29539;DHT22;16482;51.046;4.498;2022-11-27T12:47:40;24.20;36.00
29539;DHT22;16482;51.046;4.498;2022-11-27T12:55:43;24.10;35.90
29539;DHT22;16482;51.046;4.498;2022-11-27T12:58:38;24.20;36.00
29539;DHT22;16482;51.046;4.498;2022-11-27T13:01:13;24.20;36.00
29539;DHT22;16482;51.046;4.498;2022-11-27T13:10:15;24.20;36.00
29539;DHT22;16482;51.046;4.498;2022-11-27T13:19:05;24.20;35.90
29539;DHT22;16482;51.046;4.498;2022-11-27T13:21:34;24.30;35.90
29539;DHT22;16482;51.046;4.498;2022-11-27T13:24:41;24.30;35.90
29539;DHT22;16482;51.046;4.498;2022-11-27T13:27:22;24.30;35.90
29539;DHT22;16482;51.046;4.498;2022-11-27T13:33:03;24.30;35.80
29539;DHT22;16482;51.046;4.498;2022-11-27T13:35:28;24.30;35.80
29539;DHT22;16482;51.046;4.498;2022-11-27T13:38:40;24.30;35.90
29539;DHT22;16482;51.046;4.498;2022-11-27T13:40:49;24.30;35.80
29539;DHT22;16482;51.046;4.498;2022-11-27T13:45:49;24.30;35.90
29539;DHT22;16482;51.046;4.498;2022-11-27T13:54:34;24.20;35.90
29539;DHT22;16482;51.046;4.498;2022-11-27T13:57:14;24.20;35.90
29539;DHT22;16482;51.046;4.498;2022-11-27T13:59:52;24.20;35.90
29539;DHT22;16482;51.046;4.498;2022-11-27T14:02:18;24.20;35.90
29539;DHT22;16482;51.046;4.498;2022-11-27T14:04:51;24.20;35.90
29539;DHT22;16482;51.046;4.498;2022-11-27T14:16:59;24.20;35.90
29539;DHT22;16482;51.046;4.498;2022-11-27T14:19:40;24.20;35.90
29539;DHT22;16482;51.046;4.498;2022-11-27T14:22:56;24.20;36.00
29539;DHT22;16482;51.046;4.498;2022-11-27T14:25:26;24.20;35.90
29539;DHT22;16482;51.046;4.498;2022-11-27T14:28:22;24.20;35.90
29539;DHT22;16482;51.046;4.498;2022-11-27T14:33:24;24.20;35.80
29539;DHT22;16482;51.046;4.498;2022-11-27T14:36:17;24.20;35.80
29539;DHT22;16482;51.046;4.498;2022-11-27T14:38:45;24.20;35.80
29539;DHT22;16482;51.046;4.498;2022-11-27T14:41:30;24.20;35.80
29539;DHT22;16482;51.046;4.498;2022-11-27T14:44:04;24.20;35.70
29539;DHT22;16482;51.046;4.498;2022-11-27T14:46:50;24.20;35.70
29539;DHT22;16482;51.046;4.498;2022-11-27T14:49:28;24.20;35.70
29539;DHT22;16482;51.046;4.498;2022-11-27T14:51:59;24.10;35.70
29539;DHT22;16482;51.046;4.498;2022-11-27T14:54:28;24.10;35.70
29539;DHT22;16482;51.046;4.498;2022-11-27T14:56:57;24.10;35.60
29539;DHT22;16482;51.046;4.498;2022-11-27T14:59:33;24.10;35.70
29539;DHT22;16482;51.046;4.498;2022-11-27T15:05:02;24.10;35.70
29539;DHT22;16482;51.046;4.498;2022-11-27T15:07:31;24.10;35.60
29539;DHT22;16482;51.046;4.498;2022-11-27T15:09:58;24.10;35.70
29539;DHT22;16482;51.046;4.498;2022-11-27T15:12:30;24.10;35.70
29539;DHT22;16482;51.046;4.498;2022-11-27T15:18:32;24.20;35.70
29539;DHT22;16482;51.046;4.498;2022-11-27T15:21:17;24.20;35.60
29539;DHT22;16482;51.046;4.498;2022-11-27T15:23:47;24.20;35.60
29539;DHT22;16482;51.046;4.498;2022-11-27T15:26:35;24.20;35.60
29539;DHT22;16482;51.046;4.498;2022-11-27T15:35:32;24.30;35.60
29539;DHT22;16482;51.046;4.498;2022-11-27T15:38:08;24.30;35.60
29539;DHT22;16482;51.046;4.498;2022-11-27T15:40:39;24.30;35.50
29539;DHT22;16482;51.046;4.498;2022-11-27T15:43:15;24.30;35.50
29539;DHT22;16482;51.046;4.498;2022-11-27T15:45:42;24.30;35.50
29539;DHT22;16482;51.046;4.498;2022-11-27T15:48:17;24.30;35.40
29539;DHT22;16482;51.046;4.498;2022-11-27T15:50:43;24.30;35.40
29539;DHT22;16482;51.046;4.498;2022-11-27T15:53:10;24.30;35.40
29539;DHT22;16482;51.046;4.498;2022-11-27T15:55:36;24.30;35.40
29539;DHT22;16482;51.046;4.498;2022-11-27T15:58:03;24.30;35.40
29539;DHT22;16482;51.046;4.498;2022-11-27T16:00:47;24.30;35.40
29539;DHT22;16482;51.046;4.498;2022-11-27T16:03:13;24.30;35.40
29539;DHT22;16482;51.046;4.498;2022-11-27T16:05:40;24.30;35.40
29539;DHT22;16482;51.046;4.498;2022-11-27T16:08:26;24.30;36.00
29539;DHT22;16482;51.046;4.498;2022-11-27T16:10:52;24.30;35.30
29539;DHT22;16482;51.046;4.498;2022-11-27T16:13:18;24.30;35.30
29539;DHT22;16482;51.046;4.498;2022-11-27T16:15:46;24.30;35.40
29539;DHT22;16482;51.046;4.498;2022-11-27T16:18:11;24.30;35.40
29539;DHT22;16482;51.046;4.498;2022-11-27T16:20:37;24.30;35.40
29539;DHT22;16482;51.046;4.498;2022-11-27T16:23:03;24.40;35.50
29539;DHT22;16482;51.046;4.498;2022-11-27T16:25:29;24.30;35.40
29539;DHT22;16482;51.046;4.498;2022-11-27T16:27:54;24.30;35.30
29539;DHT22;16482;51.046;4.498;2022-11-27T16:33:27;24.30;35.40
29539;DHT22;16482;51.046;4.498;2022-11-27T16:35:54;24.30;35.50
29539;DHT22;16482;51.046;4.498;2022-11-27T16:38:50;24.30;35.40
29539;DHT22;16482;51.046;4.498;2022-11-27T16:41:17;24.30;35.30
29539;DHT22;16482;51.046;4.498;2022-11-27T16:43:48;24.30;35.40
29539;DHT22;16482;51.046;4.498;2022-11-27T16:49:36;24.30;35.40
29539;DHT22;16482;51.046;4.498;2022-11-27T16:52:09;24.30;35.40
29539;DHT22;16482;51.046;4.498;2022-11-27T16:54:54;24.40;35.30
29539;DHT22;16482;51.046;4.498;2022-11-27T16:57:22;24.30;35.60
29539;DHT22;16482;51.046;4.498;2022-11-27T16:59:48;24.40;35.60
29539;DHT22;16482;51.046;4.498;2022-11-27T17:02:34;24.30;35.60
29539;DHT22;16482;51.046;4.498;2022-11-27T17:05:01;24.30;35.60
29539;DHT22;16482;51.046;4.498;2022-11-27T17:07:29;24.40;35.60
29539;DHT22;16482;51.046;4.498;2022-11-27T17:09:56;24.40;35.70
29539;DHT22;16482;51.046;4.498;2022-11-27T17:12:22;24.40;35.60
29539;DHT22;16482;51.046;4.498;2022-11-27T17:15:06;24.40;35.60
29539;DHT22;16482;51.046;4.498;2022-11-27T17:17:32;24.30;35.60
29539;DHT22;16482;51.046;4.498;2022-11-27T17:20:01;24.30;35.60
29539;DHT22;16482;51.046;4.498;2022-11-27T17:22:32;24.30;35.60
29539;DHT22;16482;51.046;4.498;2022-11-27T17:24:58;24.30;35.60
29539;DHT22;16482;51.046;4.498;2022-11-27T17:27:43;24.30;35.70
29539;DHT22;16482;51.046;4.498;2022-11-27T17:30:22;24.30;35.60
29539;DHT22;16482;51.046;4.498;2022-11-27T17:32:50;24.30;35.70
29539;DHT22;16482;51.046;4.498;2022-11-27T17:35:20;24.30;35.70
29539;DHT22;16482;51.046;4.498;2022-11-27T17:37:51;24.30;35.70
29539;DHT22;16482;51.046;4.498;2022-11-27T17:40:38;24.30;35.60
29539;DHT22;16482;51.046;4.498;2022-11-27T17:43:25;24.30;35.70
29539;DHT22;16482;51.046;4.498;2022-11-27T17:45:52;24.20;35.60
29539;DHT22;16482;51.046;4.498;2022-11-27T17:48:18;24.20;35.60
29539;DHT22;16482;51.046;4.498;2022-11-27T17:50:45;24.20;35.70
29539;DHT22;16482;51.046;4.498;2022-11-27T17:53:11;24.20;35.70
29539;DHT22;16482;51.046;4.498;2022-11-27T17:55:37;24.20;35.70
29539;DHT22;16482;51.046;4.498;2022-11-27T18:01:26;24.30;35.80
29539;DHT22;16482;51.046;4.498;2022-11-27T18:03:59;24.20;35.90
29539;DHT22;16482;51.046;4.498;2022-11-27T18:06:26;24.20;35.90
29539;DHT22;16482;51.046;4.498;2022-11-27T18:08:53;24.30;36.00
29539;DHT22;16482;51.046;4.498;2022-11-27T18:11:30;24.30;36.10
29539;DHT22;16482;51.046;4.498;2022-11-27T18:14:00;24.30;36.10
29539;DHT22;16482;51.046;4.498;2022-11-27T18:16:31;24.30;36.20
29539;DHT22;16482;51.046;4.498;2022-11-27T18:19:02;24.30;36.20
29539;DHT22;16482;51.046;4.498;2022-11-27T18:21:29;24.30;36.30
29539;DHT22;16482;51.046;4.498;2022-11-27T18:23:55;24.30;36.30
29539;DHT22;16482;51.046;4.498;2022-11-27T18:26:22;24.30;36.20
29539;DHT22;16482;51.046;4.498;2022-11-27T18:28:53;24.30;36.20
29539;DHT22;16482;51.046;4.498;2022-11-27T18:31:20;24.30;36.30
29539;DHT22;16482;51.046;4.498;2022-11-27T18:34:05;24.30;36.30
29539;DHT22;16482;51.046;4.498;2022-11-27T18:36:31;24.30;36.20
29539;DHT22;16482;51.046;4.498;2022-11-27T18:38:57;24.30;36.20
29539;DHT22;16482;51.046;4.498;2022-11-27T18:41:26;24.40;36.20
29539;DHT22;16482;51.046;4.498;2022-11-27T18:43:53;24.40;36.20
29539;DHT22;16482;51.046;4.498;2022-11-27T18:46:19;24.30;36.30
29539;DHT22;16482;51.046;4.498;2022-11-27T18:48:48;24.30;36.30
29539;DHT22;16482;51.046;4.498;2022-11-27T18:51:21;24.40;36.40
29539;DHT22;16482;51.046;4.498;2022-11-27T18:53:48;24.30;36.30
29539;DHT22;16482;51.046;4.498;2022-11-27T18:56:35;24.30;36.20
29539;DHT22;16482;51.046;4.498;2022-11-27T18:59:03;24.30;36.10
29539;DHT22;16482;51.046;4.498;2022-11-27T19:01:31;24.30;36.20
29539;DHT22;16482;51.046;4.498;2022-11-27T19:04:02;24.40;36.20
29539;DHT22;16482;51.046;4.498;2022-11-27T19:06:28;24.30;36.20
29539;DHT22;16482;51.046;4.498;2022-11-27T19:08:56;24.30;36.20
29539;DHT22;16482;51.046;4.498;2022-11-27T19:11:24;24.30;36.20
29539;DHT22;16482;51.046;4.498;2022-11-27T19:13:53;24.30;36.20
29539;DHT22;16482;51.046;4.498;2022-11-27T19:16:25;24.30;36.20
29539;DHT22;16482;51.046;4.498;2022-11-27T19:18:55;24.30;36.20
29539;DHT22;16482;51.046;4.498;2022-11-27T19:21:25;24.40;36.20
29539;DHT22;16482;51.046;4.498;2022-11-27T19:23:52;24.40;36.20
29539;DHT22;16482;51.046;4.498;2022-11-27T19:26:39;24.40;36.20
29539;DHT22;16482;51.046;4.498;2022-11-27T19:29:07;24.40;36.10
29539;DHT22;16482;51.046;4.498;2022-11-27T19:31:34;24.30;36.20
29539;DHT22;16482;51.046;4.498;2022-11-27T19:34:06;24.30;36.30
29539;DHT22;16482;51.046;4.498;2022-11-27T19:36:33;24.30;36.30
29539;DHT22;16482;51.046;4.498;2022-11-27T19:39:02;24.30;36.30
29539;DHT22;16482;51.046;4.498;2022-11-27T19:41:31;24.30;36.40
29539;DHT22;16482;51.046;4.498;2022-11-27T19:43:59;24.30;36.30
29539;DHT22;16482;51.046;4.498;2022-11-27T19:46:27;24.30;36.50
29539;DHT22;16482;51.046;4.498;2022-11-27T19:48:55;24.30;36.50
29539;DHT22;16482;51.046;4.498;2022-11-27T19:51:22;24.20;36.40
29539;DHT22;16482;51.046;4.498;2022-11-27T19:53:48;24.30;36.50
29539;DHT22;16482;51.046;4.498;2022-11-27T19:56:14;24.30;36.50
29539;DHT22;16482;51.046;4.498;2022-11-27T19:58:40;24.20;36.50
29539;DHT22;16482;51.046;4.498;2022-11-27T20:01:17;24.20;36.50
29539;DHT22;16482;51.046;4.498;2022-11-27T20:03:43;24.20;36.50
29539;DHT22;16482;51.046;4.498;2022-11-27T20:06:12;24.10;36.50
29539;DHT22;16482;51.046;4.498;2022-11-27T20:08:42;24.10;36.50
29539;DHT22;16482;51.046;4.498;2022-11-27T20:11:14;24.10;36.60
29539;DHT22;16482;51.046;4.498;2022-11-27T20:13:40;24.10;36.50
29539;DHT22;16482;51.046;4.498;2022-11-27T20:19:28;24.10;36.50
29539;DHT22;16482;51.046;4.498;2022-11-27T20:22:05;24.10;36.60
29539;DHT22;16482;51.046;4.498;2022-11-27T20:24:31;24.10;36.60
29539;DHT22;16482;51.046;4.498;2022-11-27T20:26:57;24.10;36.60
29539;DHT22;16482;51.046;4.498;2022-11-27T20:29:24;24.10;36.70
29539;DHT22;16482;51.046;4.498;2022-11-27T20:32:06;24.10;36.70
29539;DHT22;16482;51.046;4.498;2022-11-27T20:34:50;24.00;36.60
29539;DHT22;16482;51.046;4.498;2022-11-27T20:37:16;24.00;36.70
29539;DHT22;16482;51.046;4.498;2022-11-27T20:39:42;24.00;36.70
29539;DHT22;16482;51.046;4.498;2022-11-27T20:42:09;24.00;36.70